sensor_id;sensor_type;location;lat;lon;timestamp;temperature;humidity
68051;DHT22;54839;51.364;7.246;2023-04-19T00:00:29;10.00;99.90
68051;DHT22;54839;51.364;7.246;2023-04-19T00:02:54;10.00;99.90
68051;DHT22;54839;51.364;7.246;2023-04-19T00:05:20;10.00;99.90
68051;DHT22;54839;51.364;7.246;2023-04-19T00:07:49;10.10;99.90
68051;DHT22;54839;51.364;7.246;2023-04-19T00:10:14;10.10;99.90
68051;DHT22;54839;51.364;7.246;2023-04-19T00:12:40;10.10;99.90
68051;DHT22;54839;51.364;7.246;2023-04-19T00:15:06;10.10;99.90
68051;DHT22;54839;51.364;7.246;2023-04-19T00:17:32;10.10;99.90
68051;DHT22;54839;51.364;7.246;2023-04-19T00:19:58;10.10;99.90
68051;DHT22;54839;51.364;7.246;2023-04-19T00:22:23;10.10;99.90
68051;DHT22;54839;51.364;7.246;2023-04-19T00:24:49;10.10;99.90
68051;DHT22;54839;51.364;7.246;2023-04-19T00:27:15;10.10;99.90
68051;DHT22;54839;51.364;7.246;2023-04-19T00:29:40;10.10;99.90
68051;DHT22;54839;51.364;7.246;2023-04-19T00:32:06;10.20;99.90
68051;DHT22;54839;51.364;7.246;2023-04-19T00:34:31;10.20;99.90
68051;DHT22;54839;51.364;7.246;2023-04-19T00:36:57;10.10;99.90
68051;DHT22;54839;51.364;7.246;2023-04-19T00:39:23;10.20;99.90
68051;DHT22;54839;51.364;7.246;2023-04-19T00:41:48;10.20;99.90
68051;DHT22;54839;51.364;7.246;2023-04-19T00:44:14;10.10;99.90
68051;DHT22;54839;51.364;7.246;2023-04-19T00:46:39;10.20;99.90
68051;DHT22;54839;51.364;7.246;2023-04-19T00:49:06;10.10;99.90
68051;DHT22;54839;51.364;7.246;2023-04-19T00:51:33;10.10;99.90
68051;DHT22;54839;51.364;7.246;2023-04-19T00:53:58;10.00;99.90
68051;DHT22;54839;51.364;7.246;2023-04-19T00:56:26;10.10;99.90
68051;DHT22;54839;51.364;7.246;2023-04-19T00:58:52;10.10;99.90
68051;DHT22;54839;51.364;7.246;2023-04-19T01:01:18;10.00;99.90
68051;DHT22;54839;51.364;7.246;2023-04-19T01:03:45;10.00;99.90
68051;DHT22;54839;51.364;7.246;2023-04-19T01:06:11;10.00;99.90
68051;DHT22;54839;51.364;7.246;2023-04-19T01:08:36;9.80;99.90
68051;DHT22;54839;51.364;7.246;2023-04-19T01:11:02;9.90;99.90
68051;DHT22;54839;51.364;7.246;2023-04-19T01:13:27;9.80;99.90
68051;DHT22;54839;51.364;7.246;2023-04-19T01:15:54;9.80;99.90
68051;DHT22;54839;51.364;7.246;2023-04-19T01:18:20;9.80;99.90
68051;DHT22;54839;51.364;7.246;2023-04-19T01:20:48;9.70;99.90
68051;DHT22;54839;51.364;7.246;2023-04-19T01:23:14;9.70;99.90
68051;DHT22;54839;51.364;7.246;2023-04-19T01:25:39;9.70;99.90
68051;DHT22;54839;51.364;7.246;2023-04-19T01:28:05;9.70;99.90
68051;DHT22;54839;51.364;7.246;2023-04-19T01:30:31;9.80;99.90
68051;DHT22;54839;51.364;7.246;2023-04-19T01:32:57;9.70;99.90
68051;DHT22;54839;51.364;7.246;2023-04-19T01:35:22;9.70;99.90
68051;DHT22;54839;51.364;7.246;2023-04-19T01:37:48;9.70;99.90
68051;DHT22;54839;51.364;7.246;2023-04-19T01:40:15;9.70;99.90
68051;DHT22;54839;51.364;7.246;2023-04-19T01:42:40;9.70;99.90
68051;DHT22;54839;51.364;7.246;2023-04-19T01:45:06;9.70;99.90
68051;DHT22;54839;51.364;7.246;2023-04-19T01:47:32;9.60;99.90
68051;DHT22;54839;51.364;7.246;2023-04-19T01:49:57;9.60;99.90
68051;DHT22;54839;51.364;7.246;2023-04-19T01:52:23;9.70;99.90
68051;DHT22;54839;51.364;7.246;2023-04-19T01:54:48;9.70;99.90
68051;DHT22;54839;51.364;7.246;2023-04-19T01:57:14;9.70;99.90
68051;DHT22;54839;51.364;7.246;2023-04-19T01:59:40;9.80;99.90
68051;DHT22;54839;51.364;7.246;2023-04-19T02:02:06;9.80;99.90
68051;DHT22;54839;51.364;7.246;2023-04-19T02:04:33;9.90;99.90
68051;DHT22;54839;51.364;7.246;2023-04-19T02:06:58;9.80;99.90
68051;DHT22;54839;51.364;7.246;2023-04-19T02:09:24;9.90;99.90
68051;DHT22;54839;51.364;7.246;2023-04-19T02:11:49;10.00;99.90
68051;DHT22;54839;51.364;7.246;2023-04-19T02:14:15;10.00;99.90
68051;DHT22;54839;51.364;7.246;2023-04-19T02:16:41;9.90;99.90
68051;DHT22;54839;51.364;7.246;2023-04-19T02:19:06;9.90;99.90
68051;DHT22;54839;51.364;7.246;2023-04-19T02:21:32;9.90;99.90
68051;DHT22;54839;51.364;7.246;2023-04-19T02:23:57;10.00;99.90
68051;DHT22;54839;51.364;7.246;2023-04-19T02:26:23;9.90;99.90
68051;DHT22;54839;51.364;7.246;2023-04-19T02:28:50;9.80;99.90
68051;DHT22;54839;51.364;7.246;2023-04-19T02:31:16;9.90;99.90
68051;DHT22;54839;51.364;7.246;2023-04-19T02:33:42;10.00;99.90
68051;DHT22;54839;51.364;7.246;2023-04-19T02:36:08;10.00;99.90
68051;DHT22;54839;51.364;7.246;2023-04-19T02:38:34;10.00;99.90
68051;DHT22;54839;51.364;7.246;2023-04-19T02:40:59;9.90;99.90
68051;DHT22;54839;51.364;7.246;2023-04-19T02:43:28;9.90;99.90
68051;DHT22;54839;51.364;7.246;2023-04-19T02:45:55;10.00;99.90
68051;DHT22;54839;51.364;7.246;2023-04-19T02:48:20;9.90;99.90
68051;DHT22;54839;51.364;7.246;2023-04-19T02:50:46;9.90;99.90
68051;DHT22;54839;51.364;7.246;2023-04-19T02:53:11;9.90;99.90
68051;DHT22;54839;51.364;7.246;2023-04-19T02:55:37;9.90;99.90
68051;DHT22;54839;51.364;7.246;2023-04-19T02:58:03;9.90;99.90
68051;DHT22;54839;51.364;7.246;2023-04-19T03:00:28;9.90;99.90
68051;DHT22;54839;51.364;7.246;2023-04-19T03:02:55;9.90;99.90
68051;DHT22;54839;51.364;7.246;2023-04-19T03:05:22;9.80;99.90
68051;DHT22;54839;51.364;7.246;2023-04-19T03:07:47;9.90;99.90
68051;DHT22;54839;51.364;7.246;2023-04-19T03:10:13;9.90;99.90
68051;DHT22;54839;51.364;7.246;2023-04-19T03:12:38;9.90;99.90
68051;DHT22;54839;51.364;7.246;2023-04-19T03:15:05;9.90;99.90
68051;DHT22;54839;51.364;7.246;2023-04-19T03:17:30;9.80;99.90
68051;DHT22;54839;51.364;7.246;2023-04-19T03:19:56;9.90;99.90
68051;DHT22;54839;51.364;7.246;2023-04-19T03:22:22;9.80;99.90
68051;DHT22;54839;51.364;7.246;2023-04-19T03:24:47;9.80;99.90
68051;DHT22;54839;51.364;7.246;2023-04-19T03:27:13;9.80;99.90
68051;DHT22;54839;51.364;7.246;2023-04-19T03:29:38;9.80;99.90
68051;DHT22;54839;51.364;7.246;2023-04-19T03:32:04;9.90;99.90
68051;DHT22;54839;51.364;7.246;2023-04-19T03:34:29;9.80;99.90
68051;DHT22;54839;51.364;7.246;2023-04-19T03:36:55;9.80;99.90
68051;DHT22;54839;51.364;7.246;2023-04-19T03:39:21;9.90;99.90
68051;DHT22;54839;51.364;7.246;2023-04-19T03:41:46;9.80;99.90
68051;DHT22;54839;51.364;7.246;2023-04-19T03:44:12;9.90;99.90
68051;DHT22;54839;51.364;7.246;2023-04-19T03:46:37;9.80;99.90
68051;DHT22;54839;51.364;7.246;2023-04-19T03:49:03;9.70;99.90
68051;DHT22;54839;51.364;7.246;2023-04-19T03:51:28;9.70;99.90
68051;DHT22;54839;51.364;7.246;2023-04-19T03:53:54;9.80;99.90
68051;DHT22;54839;51.364;7.246;2023-04-19T03:56:19;9.80;99.90
68051;DHT22;54839;51.364;7.246;2023-04-19T03:58:45;9.70;99.90
68051;DHT22;54839;51.364;7.246;2023-04-19T04:01:18;9.60;99.90
68051;DHT22;54839;51.364;7.246;2023-04-19T04:03:44;9.60;99.90
68051;DHT22;54839;51.364;7.246;2023-04-19T04:06:09;9.70;99.90
68051;DHT22;54839;51.364;7.246;2023-04-19T04:08:35;9.70;99.90
68051;DHT22;54839;51.364;7.246;2023-04-19T04:11:00;9.70;99.90
68051;DHT22;54839;51.364;7.246;2023-04-19T04:13:26;9.60;99.90
68051;DHT22;54839;51.364;7.246;2023-04-19T04:15:51;9.60;99.90
68051;DHT22;54839;51.364;7.246;2023-04-19T04:18:17;9.60;99.90
68051;DHT22;54839;51.364;7.246;2023-04-19T04:20:43;9.70;99.90
68051;DHT22;54839;51.364;7.246;2023-04-19T04:23:08;9.70;99.90
68051;DHT22;54839;51.364;7.246;2023-04-19T04:25:35;9.50;99.90
68051;DHT22;54839;51.364;7.246;2023-04-19T04:28:05;9.50;99.90
68051;DHT22;54839;51.364;7.246;2023-04-19T04:30:32;9.40;99.90
68051;DHT22;54839;51.364;7.246;2023-04-19T04:32:58;9.40;99.90
68051;DHT22;54839;51.364;7.246;2023-04-19T04:35:24;9.40;99.90
68051;DHT22;54839;51.364;7.246;2023-04-19T04:37:50;9.50;99.90
68051;DHT22;54839;51.364;7.246;2023-04-19T04:40:18;9.40;99.90
68051;DHT22;54839;51.364;7.246;2023-04-19T04:42:44;9.30;99.90
68051;DHT22;54839;51.364;7.246;2023-04-19T04:45:10;9.30;99.90
68051;DHT22;54839;51.364;7.246;2023-04-19T04:47:37;9.20;99.90
68051;DHT22;54839;51.364;7.246;2023-04-19T04:50:03;9.10;99.90
68051;DHT22;54839;51.364;7.246;2023-04-19T04:52:28;9.00;99.90
68051;DHT22;54839;51.364;7.246;2023-04-19T04:54:54;9.00;99.90
68051;DHT22;54839;51.364;7.246;2023-04-19T04:57:20;8.80;99.90
68051;DHT22;54839;51.364;7.246;2023-04-19T04:59:45;8.80;99.90
68051;DHT22;54839;51.364;7.246;2023-04-19T05:02:13;8.80;99.90
68051;DHT22;54839;51.364;7.246;2023-04-19T05:04:38;8.70;99.90
68051;DHT22;54839;51.364;7.246;2023-04-19T05:07:04;8.60;99.90
68051;DHT22;54839;51.364;7.246;2023-04-19T05:09:30;8.60;99.90
68051;DHT22;54839;51.364;7.246;2023-04-19T05:11:56;8.40;99.90
68051;DHT22;54839;51.364;7.246;2023-04-19T05:14:21;8.50;99.90
68051;DHT22;54839;51.364;7.246;2023-04-19T05:16:47;8.50;99.90
68051;DHT22;54839;51.364;7.246;2023-04-19T05:19:12;8.50;99.90
68051;DHT22;54839;51.364;7.246;2023-04-19T05:21:38;8.50;99.90
68051;DHT22;54839;51.364;7.246;2023-04-19T05:24:04;8.40;99.90
68051;DHT22;54839;51.364;7.246;2023-04-19T05:26:29;8.40;99.90
68051;DHT22;54839;51.364;7.246;2023-04-19T05:28:55;8.40;99.90
68051;DHT22;54839;51.364;7.246;2023-04-19T05:31:21;8.40;99.90
68051;DHT22;54839;51.364;7.246;2023-04-19T05:33:46;8.30;99.90
68051;DHT22;54839;51.364;7.246;2023-04-19T05:36:12;8.30;99.90
68051;DHT22;54839;51.364;7.246;2023-04-19T05:38:38;8.30;99.90
68051;DHT22;54839;51.364;7.246;2023-04-19T05:41:03;8.40;99.90
68051;DHT22;54839;51.364;7.246;2023-04-19T05:43:29;8.50;99.90
68051;DHT22;54839;51.364;7.246;2023-04-19T05:45:54;8.50;99.90
68051;DHT22;54839;51.364;7.246;2023-04-19T05:48:20;8.40;99.90
68051;DHT22;54839;51.364;7.246;2023-04-19T05:50:45;8.50;99.90
68051;DHT22;54839;51.364;7.246;2023-04-19T05:53:11;8.60;99.90
68051;DHT22;54839;51.364;7.246;2023-04-19T05:55:36;8.60;99.90
68051;DHT22;54839;51.364;7.246;2023-04-19T05:58:02;8.80;99.90
68051;DHT22;54839;51.364;7.246;2023-04-19T06:00:27;8.90;99.90
68051;DHT22;54839;51.364;7.246;2023-04-19T06:02:53;8.90;99.90
68051;DHT22;54839;51.364;7.246;2023-04-19T06:05:19;9.00;99.90
68051;DHT22;54839;51.364;7.246;2023-04-19T06:07:44;9.10;99.90
68051;DHT22;54839;51.364;7.246;2023-04-19T06:10:10;9.20;99.90
68051;DHT22;54839;51.364;7.246;2023-04-19T06:12:35;9.30;99.90
68051;DHT22;54839;51.364;7.246;2023-04-19T06:15:01;9.30;99.90
68051;DHT22;54839;51.364;7.246;2023-04-19T06:17:27;9.50;99.90
68051;DHT22;54839;51.364;7.246;2023-04-19T06:19:53;9.70;99.90
68051;DHT22;54839;51.364;7.246;2023-04-19T06:22:19;9.80;99.90
68051;DHT22;54839;51.364;7.246;2023-04-19T06:24:46;9.90;99.90
68051;DHT22;54839;51.364;7.246;2023-04-19T06:27:11;9.90;99.90
68051;DHT22;54839;51.364;7.246;2023-04-19T06:29:37;9.90;99.90
68051;DHT22;54839;51.364;7.246;2023-04-19T06:32:03;9.90;99.90
68051;DHT22;54839;51.364;7.246;2023-04-19T06:34:28;9.70;99.90
68051;DHT22;54839;51.364;7.246;2023-04-19T06:36:54;9.80;99.90
68051;DHT22;54839;51.364;7.246;2023-04-19T06:39:19;9.70;99.90
68051;DHT22;54839;51.364;7.246;2023-04-19T06:41:45;9.80;99.90
68051;DHT22;54839;51.364;7.246;2023-04-19T06:44:10;10.00;99.90
68051;DHT22;54839;51.364;7.246;2023-04-19T06:46:37;10.00;99.90
68051;DHT22;54839;51.364;7.246;2023-04-19T06:49:03;10.00;99.90
68051;DHT22;54839;51.364;7.246;2023-04-19T06:51:29;10.00;99.90
68051;DHT22;54839;51.364;7.246;2023-04-19T06:53:54;10.00;99.90
68051;DHT22;54839;51.364;7.246;2023-04-19T06:56:38;10.00;99.90
68051;DHT22;54839;51.364;7.246;2023-04-19T06:59:04;9.90;99.90
68051;DHT22;54839;51.364;7.246;2023-04-19T07:01:30;10.00;99.90
68051;DHT22;54839;51.364;7.246;2023-04-19T07:03:55;9.90;99.90
68051;DHT22;54839;51.364;7.246;2023-04-19T07:06:21;9.80;99.90
68051;DHT22;54839;51.364;7.246;2023-04-19T07:08:46;9.80;99.90
68051;DHT22;54839;51.364;7.246;2023-04-19T07:11:12;9.80;99.90
68051;DHT22;54839;51.364;7.246;2023-04-19T07:13:37;9.80;99.90
68051;DHT22;54839;51.364;7.246;2023-04-19T07:16:03;9.80;99.90
68051;DHT22;54839;51.364;7.246;2023-04-19T07:18:29;9.90;99.90
68051;DHT22;54839;51.364;7.246;2023-04-19T07:20:55;10.00;99.90
68051;DHT22;54839;51.364;7.246;2023-04-19T07:23:20;10.10;99.90
68051;DHT22;54839;51.364;7.246;2023-04-19T07:25:46;10.20;99.90
68051;DHT22;54839;51.364;7.246;2023-04-19T07:28:11;10.20;99.90
68051;DHT22;54839;51.364;7.246;2023-04-19T07:30:37;10.20;99.90
68051;DHT22;54839;51.364;7.246;2023-04-19T07:33:02;10.20;99.90
68051;DHT22;54839;51.364;7.246;2023-04-19T07:35:29;10.20;99.90
68051;DHT22;54839;51.364;7.246;2023-04-19T07:37:55;10.20;99.90
68051;DHT22;54839;51.364;7.246;2023-04-19T07:40:20;10.30;99.90
68051;DHT22;54839;51.364;7.246;2023-04-19T07:42:46;10.20;99.90
68051;DHT22;54839;51.364;7.246;2023-04-19T07:45:11;10.30;99.90
68051;DHT22;54839;51.364;7.246;2023-04-19T07:47:37;10.30;99.90
68051;DHT22;54839;51.364;7.246;2023-04-19T07:50:03;10.30;99.90
68051;DHT22;54839;51.364;7.246;2023-04-19T07:52:30;10.20;99.90
68051;DHT22;54839;51.364;7.246;2023-04-19T07:54:55;10.30;99.90
68051;DHT22;54839;51.364;7.246;2023-04-19T07:57:21;10.30;99.90
68051;DHT22;54839;51.364;7.246;2023-04-19T07:59:46;10.20;99.90
68051;DHT22;54839;51.364;7.246;2023-04-19T08:02:12;10.20;99.90
68051;DHT22;54839;51.364;7.246;2023-04-19T08:04:38;10.20;99.90
68051;DHT22;54839;51.364;7.246;2023-04-19T08:07:03;10.20;99.90
68051;DHT22;54839;51.364;7.246;2023-04-19T08:09:29;10.30;99.90
68051;DHT22;54839;51.364;7.246;2023-04-19T08:11:54;10.40;99.90
68051;DHT22;54839;51.364;7.246;2023-04-19T08:14:21;10.50;99.90
68051;DHT22;54839;51.364;7.246;2023-04-19T08:16:46;10.50;99.90
68051;DHT22;54839;51.364;7.246;2023-04-19T08:19:12;10.30;99.90
68051;DHT22;54839;51.364;7.246;2023-04-19T08:21:37;10.30;99.90
68051;DHT22;54839;51.364;7.246;2023-04-19T08:24:03;10.40;99.90
68051;DHT22;54839;51.364;7.246;2023-04-19T08:26:29;10.50;99.90
68051;DHT22;54839;51.364;7.246;2023-04-19T08:28:54;10.30;99.90
68051;DHT22;54839;51.364;7.246;2023-04-19T08:31:20;10.50;99.90
68051;DHT22;54839;51.364;7.246;2023-04-19T08:33:46;10.50;99.90
68051;DHT22;54839;51.364;7.246;2023-04-19T08:36:12;10.40;99.90
68051;DHT22;54839;51.364;7.246;2023-04-19T08:38:37;10.30;99.90
68051;DHT22;54839;51.364;7.246;2023-04-19T08:41:03;10.40;99.90
68051;DHT22;54839;51.364;7.246;2023-04-19T08:43:29;10.50;99.90
68051;DHT22;54839;51.364;7.246;2023-04-19T08:45:58;10.40;99.90
68051;DHT22;54839;51.364;7.246;2023-04-19T08:48:23;10.50;99.90
68051;DHT22;54839;51.364;7.246;2023-04-19T08:50:50;10.50;99.90
68051;DHT22;54839;51.364;7.246;2023-04-19T08:53:16;10.60;99.90
68051;DHT22;54839;51.364;7.246;2023-04-19T08:55:42;10.50;99.90
68051;DHT22;54839;51.364;7.246;2023-04-19T08:58:08;10.50;99.90
68051;DHT22;54839;51.364;7.246;2023-04-19T09:00:37;10.50;99.90
68051;DHT22;54839;51.364;7.246;2023-04-19T09:03:06;10.40;99.90
68051;DHT22;54839;51.364;7.246;2023-04-19T09:05:31;10.40;99.90
68051;DHT22;54839;51.364;7.246;2023-04-19T09:08:21;10.40;99.90
68051;DHT22;54839;51.364;7.246;2023-04-19T09:10:55;10.50;99.90
68051;DHT22;54839;51.364;7.246;2023-04-19T09:13:21;10.40;99.90
68051;DHT22;54839;51.364;7.246;2023-04-19T09:15:47;10.40;99.90
68051;DHT22;54839;51.364;7.246;2023-04-19T09:18:12;10.60;99.90
68051;DHT22;54839;51.364;7.246;2023-04-19T09:20:40;10.70;99.90
68051;DHT22;54839;51.364;7.246;2023-04-19T09:23:08;10.80;99.90
68051;DHT22;54839;51.364;7.246;2023-04-19T09:25:34;10.70;99.90
68051;DHT22;54839;51.364;7.246;2023-04-19T09:28:13;10.60;99.90
68051;DHT22;54839;51.364;7.246;2023-04-19T09:30:39;10.60;99.90
68051;DHT22;54839;51.364;7.246;2023-04-19T09:33:05;10.70;99.90
68051;DHT22;54839;51.364;7.246;2023-04-19T09:35:50;10.80;99.90
68051;DHT22;54839;51.364;7.246;2023-04-19T09:38:15;11.00;99.90
68051;DHT22;54839;51.364;7.246;2023-04-19T09:40:41;11.10;99.90
68051;DHT22;54839;51.364;7.246;2023-04-19T09:43:07;11.00;99.90
68051;DHT22;54839;51.364;7.246;2023-04-19T09:45:40;11.00;99.90
68051;DHT22;54839;51.364;7.246;2023-04-19T09:48:07;11.10;99.90
68051;DHT22;54839;51.364;7.246;2023-04-19T09:50:34;11.10;99.90
68051;DHT22;54839;51.364;7.246;2023-04-19T09:53:00;11.10;99.90
68051;DHT22;54839;51.364;7.246;2023-04-19T09:55:26;11.10;99.90
68051;DHT22;54839;51.364;7.246;2023-04-19T09:57:52;11.30;99.90
68051;DHT22;54839;51.364;7.246;2023-04-19T10:00:19;11.30;99.90
68051;DHT22;54839;51.364;7.246;2023-04-19T10:02:46;11.10;99.90
68051;DHT22;54839;51.364;7.246;2023-04-19T10:05:19;11.10;97.80
68051;DHT22;54839;51.364;7.246;2023-04-19T10:07:45;11.40;97.90
68051;DHT22;54839;51.364;7.246;2023-04-19T10:10:15;11.40;97.90
68051;DHT22;54839;51.364;7.246;2023-04-19T10:12:42;11.30;97.40
68051;DHT22;54839;51.364;7.246;2023-04-19T10:15:11;11.40;97.40
68051;DHT22;54839;51.364;7.246;2023-04-19T10:17:37;11.30;97.00
68051;DHT22;54839;51.364;7.246;2023-04-19T10:20:07;11.40;96.90
68051;DHT22;54839;51.364;7.246;2023-04-19T10:22:34;11.40;96.70
68051;DHT22;54839;51.364;7.246;2023-04-19T10:25:08;11.60;97.20
68051;DHT22;54839;51.364;7.246;2023-04-19T10:27:35;11.70;97.80
68051;DHT22;54839;51.364;7.246;2023-04-19T10:30:02;11.80;97.70
68051;DHT22;54839;51.364;7.246;2023-04-19T10:32:43;11.80;97.70
68051;DHT22;54839;51.364;7.246;2023-04-19T10:35:32;11.60;97.10
68051;DHT22;54839;51.364;7.246;2023-04-19T10:40:53;11.80;96.60
68051;DHT22;54839;51.364;7.246;2023-04-19T10:43:22;11.70;96.10
68051;DHT22;54839;51.364;7.246;2023-04-19T10:45:49;11.80;95.70
68051;DHT22;54839;51.364;7.246;2023-04-19T10:51:16;11.90;95.30
68051;DHT22;54839;51.364;7.246;2023-04-19T10:56:20;12.10;95.20
68051;DHT22;54839;51.364;7.246;2023-04-19T11:01:49;11.90;94.20
68051;DHT22;54839;51.364;7.246;2023-04-19T11:04:20;12.00;94.10
68051;DHT22;54839;51.364;7.246;2023-04-19T11:09:29;12.00;93.40
68051;DHT22;54839;51.364;7.246;2023-04-19T11:12:04;12.10;93.70
68051;DHT22;54839;51.364;7.246;2023-04-19T11:14:52;12.20;93.60
68051;DHT22;54839;51.364;7.246;2023-04-19T11:17:24;12.30;93.30
68051;DHT22;54839;51.364;7.246;2023-04-19T11:20:03;12.10;92.10
68051;DHT22;54839;51.364;7.246;2023-04-19T11:25:19;12.10;92.10
68051;DHT22;54839;51.364;7.246;2023-04-19T11:27:52;12.30;92.70
68051;DHT22;54839;51.364;7.246;2023-04-19T11:30:19;12.40;92.10
68051;DHT22;54839;51.364;7.246;2023-04-19T11:32:47;12.50;92.20
68051;DHT22;54839;51.364;7.246;2023-04-19T11:35:14;12.40;91.80
68051;DHT22;54839;51.364;7.246;2023-04-19T11:37:40;12.30;92.30
68051;DHT22;54839;51.364;7.246;2023-04-19T11:40:06;12.60;92.50
68051;DHT22;54839;51.364;7.246;2023-04-19T11:42:33;12.70;91.20
68051;DHT22;54839;51.364;7.246;2023-04-19T11:44:59;12.80;91.30
68051;DHT22;54839;51.364;7.246;2023-04-19T11:47:25;12.80;89.70
68051;DHT22;54839;51.364;7.246;2023-04-19T11:49:51;13.00;88.30
68051;DHT22;54839;51.364;7.246;2023-04-19T11:52:24;12.90;88.10
68051;DHT22;54839;51.364;7.246;2023-04-19T11:54:53;13.10;88.60
68051;DHT22;54839;51.364;7.246;2023-04-19T11:57:29;13.10;86.00
68051;DHT22;54839;51.364;7.246;2023-04-19T12:00:06;13.10;84.60
68051;DHT22;54839;51.364;7.246;2023-04-19T12:02:39;13.20;85.80
68051;DHT22;54839;51.364;7.246;2023-04-19T12:05:13;13.30;84.30
68051;DHT22;54839;51.364;7.246;2023-04-19T12:08:04;13.30;85.80
68051;DHT22;54839;51.364;7.246;2023-04-19T12:10:33;13.30;85.10
68051;DHT22;54839;51.364;7.246;2023-04-19T12:12:59;13.30;84.60
68051;DHT22;54839;51.364;7.246;2023-04-19T12:15:44;13.20;86.00
68051;DHT22;54839;51.364;7.246;2023-04-19T12:18:10;13.10;83.10
68051;DHT22;54839;51.364;7.246;2023-04-19T12:20:37;13.20;84.90
68051;DHT22;54839;51.364;7.246;2023-04-19T12:23:03;13.30;85.40
68051;DHT22;54839;51.364;7.246;2023-04-19T12:25:30;13.30;85.10
68051;DHT22;54839;51.364;7.246;2023-04-19T12:27:56;13.40;82.60
68051;DHT22;54839;51.364;7.246;2023-04-19T12:30:22;13.40;83.50
68051;DHT22;54839;51.364;7.246;2023-04-19T12:32:48;13.40;80.70
68051;DHT22;54839;51.364;7.246;2023-04-19T12:35:15;13.70;83.00
68051;DHT22;54839;51.364;7.246;2023-04-19T12:37:42;13.90;78.80
68051;DHT22;54839;51.364;7.246;2023-04-19T12:40:08;13.80;73.90
68051;DHT22;54839;51.364;7.246;2023-04-19T12:42:33;13.70;74.80
68051;DHT22;54839;51.364;7.246;2023-04-19T12:44:59;14.40;75.70
68051;DHT22;54839;51.364;7.246;2023-04-19T12:47:25;16.20;70.40
68051;DHT22;54839;51.364;7.246;2023-04-19T12:49:50;17.60;65.60
68051;DHT22;54839;51.364;7.246;2023-04-19T12:52:18;18.60;65.10
68051;DHT22;54839;51.364;7.246;2023-04-19T12:54:44;19.80;61.20
68051;DHT22;54839;51.364;7.246;2023-04-19T12:57:09;20.40;59.20
68051;DHT22;54839;51.364;7.246;2023-04-19T12:59:34;20.00;57.60
68051;DHT22;54839;51.364;7.246;2023-04-19T13:02:00;19.90;56.40
68051;DHT22;54839;51.364;7.246;2023-04-19T13:04:26;19.60;55.80
68051;DHT22;54839;51.364;7.246;2023-04-19T13:06:51;20.20;56.00
68051;DHT22;54839;51.364;7.246;2023-04-19T13:09:17;21.30;53.80
68051;DHT22;54839;51.364;7.246;2023-04-19T13:11:42;21.30;53.20
68051;DHT22;54839;51.364;7.246;2023-04-19T13:14:08;22.10;53.20
68051;DHT22;54839;51.364;7.246;2023-04-19T13:16:33;22.60;52.90
68051;DHT22;54839;51.364;7.246;2023-04-19T13:18:59;22.60;49.70
68051;DHT22;54839;51.364;7.246;2023-04-19T13:21:24;22.30;48.30
68051;DHT22;54839;51.364;7.246;2023-04-19T13:23:52;21.60;47.60
68051;DHT22;54839;51.364;7.246;2023-04-19T13:26:17;21.60;46.40
68051;DHT22;54839;51.364;7.246;2023-04-19T13:28:43;21.80;47.70
68051;DHT22;54839;51.364;7.246;2023-04-19T13:31:09;22.00;46.20
68051;DHT22;54839;51.364;7.246;2023-04-19T13:33:34;22.90;46.30
68051;DHT22;54839;51.364;7.246;2023-04-19T13:36:00;22.50;44.60
68051;DHT22;54839;51.364;7.246;2023-04-19T13:38:25;23.80;44.50
68051;DHT22;54839;51.364;7.246;2023-04-19T13:40:51;25.30;43.30
68051;DHT22;54839;51.364;7.246;2023-04-19T13:43:17;24.80;43.60
68051;DHT22;54839;51.364;7.246;2023-04-19T13:45:42;23.70;42.40
68051;DHT22;54839;51.364;7.246;2023-04-19T13:48:08;24.80;42.90
68051;DHT22;54839;51.364;7.246;2023-04-19T13:50:33;24.00;41.50
68051;DHT22;54839;51.364;7.246;2023-04-19T13:52:59;24.50;42.00
68051;DHT22;54839;51.364;7.246;2023-04-19T13:55:25;24.00;41.80
68051;DHT22;54839;51.364;7.246;2023-04-19T13:57:51;24.40;41.60
68051;DHT22;54839;51.364;7.246;2023-04-19T14:00:17;23.00;39.70
68051;DHT22;54839;51.364;7.246;2023-04-19T14:02:43;23.40;40.70
68051;DHT22;54839;51.364;7.246;2023-04-19T14:05:09;23.70;41.40
68051;DHT22;54839;51.364;7.246;2023-04-19T14:07:34;24.70;40.70
68051;DHT22;54839;51.364;7.246;2023-04-19T14:10:00;26.00;40.20
68051;DHT22;54839;51.364;7.246;2023-04-19T14:12:26;24.50;40.00
68051;DHT22;54839;51.364;7.246;2023-04-19T14:14:51;25.10;40.40
68051;DHT22;54839;51.364;7.246;2023-04-19T14:17:17;25.50;39.80
68051;DHT22;54839;51.364;7.246;2023-04-19T14:19:42;24.70;39.50
68051;DHT22;54839;51.364;7.246;2023-04-19T14:22:08;24.30;39.00
68051;DHT22;54839;51.364;7.246;2023-04-19T14:24:33;23.80;39.10
68051;DHT22;54839;51.364;7.246;2023-04-19T14:26:59;24.90;39.90
68051;DHT22;54839;51.364;7.246;2023-04-19T14:29:24;24.50;39.60
68051;DHT22;54839;51.364;7.246;2023-04-19T14:31:51;23.40;38.80
68051;DHT22;54839;51.364;7.246;2023-04-19T14:34:16;22.80;38.40
68051;DHT22;54839;51.364;7.246;2023-04-19T14:36:42;23.20;39.10
68051;DHT22;54839;51.364;7.246;2023-04-19T14:39:07;24.00;38.90
68051;DHT22;54839;51.364;7.246;2023-04-19T14:41:33;24.20;39.90
68051;DHT22;54839;51.364;7.246;2023-04-19T14:43:59;24.50;38.20
68051;DHT22;54839;51.364;7.246;2023-04-19T14:46:24;24.30;38.50
68051;DHT22;54839;51.364;7.246;2023-04-19T14:48:50;24.30;38.70
68051;DHT22;54839;51.364;7.246;2023-04-19T14:51:15;23.90;38.70
68051;DHT22;54839;51.364;7.246;2023-04-19T14:53:41;24.00;38.80
68051;DHT22;54839;51.364;7.246;2023-04-19T14:56:06;23.40;38.60
68051;DHT22;54839;51.364;7.246;2023-04-19T14:58:32;24.10;38.90
68051;DHT22;54839;51.364;7.246;2023-04-19T15:00:58;23.10;39.50
68051;DHT22;54839;51.364;7.246;2023-04-19T15:03:23;23.70;39.10
68051;DHT22;54839;51.364;7.246;2023-04-19T15:05:49;23.00;39.10
68051;DHT22;54839;51.364;7.246;2023-04-19T15:08:15;23.10;39.10
68051;DHT22;54839;51.364;7.246;2023-04-19T15:10:40;23.40;38.80
68051;DHT22;54839;51.364;7.246;2023-04-19T15:13:06;24.40;39.20
68051;DHT22;54839;51.364;7.246;2023-04-19T15:15:32;24.00;38.40
68051;DHT22;54839;51.364;7.246;2023-04-19T15:17:57;24.30;38.70
68051;DHT22;54839;51.364;7.246;2023-04-19T15:20:23;23.50;39.20
68051;DHT22;54839;51.364;7.246;2023-04-19T15:22:48;23.80;39.60
68051;DHT22;54839;51.364;7.246;2023-04-19T15:25:14;23.40;39.20
68051;DHT22;54839;51.364;7.246;2023-04-19T15:27:39;22.80;38.90
68051;DHT22;54839;51.364;7.246;2023-04-19T15:30:06;22.40;39.00
68051;DHT22;54839;51.364;7.246;2023-04-19T15:32:31;22.30;39.00
68051;DHT22;54839;51.364;7.246;2023-04-19T15:35:00;21.90;38.80
68051;DHT22;54839;51.364;7.246;2023-04-19T15:37:26;22.60;38.60
68051;DHT22;54839;51.364;7.246;2023-04-19T15:39:51;23.00;37.80
68051;DHT22;54839;51.364;7.246;2023-04-19T15:42:17;23.00;38.40
68051;DHT22;54839;51.364;7.246;2023-04-19T15:44:42;23.30;37.70
68051;DHT22;54839;51.364;7.246;2023-04-19T15:47:08;22.90;38.30
68051;DHT22;54839;51.364;7.246;2023-04-19T15:49:33;23.20;38.60